Time;durP1;ratioP1;P1;durP2;ratioP2;P2;SDS_P1;SDS_P2;PMS_P1;PMS_P2;Temp;Humidity;BMP_temperature;BMP_pressure;BME280_temperature;BME280_humidity;BME280_pressure;Samples;Min_cycle;Max_cycle;Signal;HPM_P1;HPM_P2
2022/10/31 00:01:33;;;;;;;11.40;5.80;;;14.40;99.90;;;14.89;nan;101058.38;5041366;28;20616;-65
2022/10/31 00:04:00;;;;;;;8.67;5.70;;;14.40;99.90;;;14.85;nan;101056.97;5030841;28;20615;-65
2022/10/31 00:06:27;;;;;;;8.80;5.70;;;14.40;99.90;;;14.77;nan;101060.22;5029469;28;20981;-65
2022/10/31 00:09:00;;;;;;;13.80;6.07;;;14.30;99.90;;;14.75;nan;101061.31;5029501;28;20651;-66
2022/10/31 00:11:27;;;;;;;13.70;6.03;;;14.30;99.90;;;14.78;nan;101063.66;5029338;28;21024;-64
2022/10/31 00:13:54;;;;;;;8.67;6.30;;;14.30;99.90;;;14.71;nan;101063.34;5029599;28;21171;-66
2022/10/31 00:16:24;;;;;;;11.53;7.00;;;14.20;99.90;;;14.75;nan;101069.19;5023468;28;20642;-66
2022/10/31 00:18:54;;;;;;;14.40;5.67;;;14.30;99.90;;;14.75;nan;101062.16;5031422;28;20676;-63
2022/10/31 00:21:22;;;;;;;12.67;6.60;;;14.20;99.90;;;14.67;nan;101066.38;5030145;28;20639;-64
2022/10/31 00:23:49;;;;;;;14.93;7.60;;;14.20;99.90;;;14.70;nan;101066.94;5029480;28;21188;-64
2022/10/31 00:26:16;;;;;;;16.63;7.07;;;14.20;99.90;;;14.63;nan;101062.31;5026005;28;21216;-65
2022/10/31 00:28:44;;;;;;;13.93;7.13;;;14.10;99.90;;;14.67;nan;101069.81;5034059;28;20663;-64
2022/10/31 00:31:12;;;;;;;11.57;6.17;;;14.20;99.90;;;14.56;nan;101069.88;5032497;28;20633;-64
2022/10/31 00:33:40;;;;;;;10.17;6.67;;;14.10;99.90;;;14.52;nan;101071.06;5029830;28;20693;-65
2022/10/31 00:36:12;;;;;;;13.30;7.10;;;14.10;99.90;;;14.49;nan;101076.56;5029047;28;21042;-63
2022/10/31 00:38:40;;;;;;;16.70;7.33;;;14.00;99.90;;;14.49;nan;101073.09;5035242;28;20659;-65
2022/10/31 00:41:12;;;;;;;11.60;6.40;;;14.00;99.90;;;14.51;nan;101072.03;5049148;28;20620;-64
2022/10/31 00:43:39;;;;;;;12.53;6.00;;;14.10;99.90;;;14.51;nan;101079.91;5013340;28;20617;-65
2022/10/31 00:46:06;;;;;;;10.63;6.27;;;14.00;99.90;;;14.46;nan;101084.69;5029069;28;20625;-64
2022/10/31 00:48:33;;;;;;;10.90;5.53;;;14.00;99.90;;;14.54;nan;101078.81;5029942;28;20661;-64
2022/10/31 00:51:00;;;;;;;16.70;5.20;;;14.00;99.90;;;14.50;nan;101082.66;5028030;28;20643;-63
2022/10/31 00:53:27;;;;;;;8.40;4.93;;;14.00;99.90;;;14.42;nan;101079.81;5030358;28;20629;-65
2022/10/31 00:55:54;;;;;;;10.60;6.30;;;14.00;99.90;;;14.37;nan;101081.97;5029327;28;21212;-64
2022/10/31 00:58:21;;;;;;;9.63;5.17;;;14.00;99.90;;;14.42;nan;101085.91;5029615;28;20675;-66
2022/10/31 01:00:54;;;;;;;8.13;4.83;;;14.00;99.90;;;14.40;nan;101081.72;5029254;28;20626;-64
2022/10/31 01:03:31;;;;;;;10.33;6.00;;;14.00;99.90;;;14.42;nan;101085.91;5029991;28;20646;-66
2022/10/31 01:06:08;;;;;;;9.77;5.10;;;14.00;99.90;;;14.36;nan;101085.56;5029610;28;20612;-63
2022/10/31 01:08:36;;;;;;;8.97;5.23;;;13.90;99.90;;;14.36;nan;101091.66;5029963;28;21259;-67
2022/10/31 01:11:11;;;;;;;9.30;5.53;;;13.90;99.90;;;14.30;nan;101086.88;5029705;28;20625;-67
2022/10/31 01:13:39;;;;;;;9.93;5.70;;;13.90;99.90;;;14.34;nan;101082.22;5029757;28;20636;-64
2022/10/31 01:16:09;;;;;;;11.63;5.60;;;13.90;99.90;;;14.32;nan;101084.13;5029156;28;20609;-66
2022/10/31 01:18:36;;;;;;;7.77;5.60;;;13.90;99.90;;;14.36;nan;101088.19;5036576;28;20729;-64
2022/10/31 01:21:12;;;;;;;9.30;5.30;;;13.90;99.90;;;14.38;nan;101081.84;5029424;28;20613;-68
2022/10/31 01:23:40;;;;;;;7.03;5.77;;;13.90;99.90;;;14.38;nan;101089.72;5045338;28;20697;-64
2022/10/31 01:26:12;;;;;;;10.93;6.27;;;13.90;99.90;;;14.40;nan;101097.47;5032975;28;21157;-65
2022/10/31 01:28:51;;;;;;;10.50;5.97;;;13.90;99.90;;;14.31;nan;101090.34;5031083;28;20660;-64
2022/10/31 01:31:23;;;;;;;9.83;5.90;;;13.90;99.90;;;14.30;nan;101086.88;5032589;28;20996;-62
2022/10/31 01:33:50;;;;;;;11.80;6.67;;;13.90;99.90;;;14.50;nan;101082.66;5032792;28;21114;-66
2022/10/31 01:36:24;;;;;;;9.73;6.17;;;13.90;99.90;;;14.50;nan;101083.47;5032966;28;20640;-65
2022/10/31 01:38:53;;;;;;;9.33;6.10;;;14.00;99.90;;;14.51;nan;101079.06;5030891;28;20660;-64
2022/10/31 01:41:25;;;;;;;11.37;7.00;;;13.90;99.90;;;14.37;nan;101081.97;5033337;28;20643;-65
2022/10/31 01:44:13;;;;;;;10.10;6.20;;;13.90;99.90;;;14.42;nan;101085.91;5033213;28;20619;-66
2022/10/31 01:47:20;;;;;;;8.10;5.63;;;13.90;99.90;;;14.49;nan;101075.72;5031916;28;20719;-67
2022/10/31 01:49:57;;;;;;;6.87;4.97;;;13.90;99.90;;;14.35;nan;101078.66;5030694;28;20671;-64
2022/10/31 01:52:35;;;;;;;8.63;5.57;;;13.90;99.90;;;14.43;nan;101076.22;5032301;28;21042;-66
2022/10/31 01:55:17;;;;;;;12.93;5.83;;;14.00;99.90;;;14.50;nan;101074.78;5032627;28;20626;-66
2022/10/31 01:57:48;;;;;;;10.20;6.17;;;14.00;99.90;;;14.55;nan;101072.59;5030630;28;20636;-63
2022/10/31 02:00:15;;;;;;;18.00;6.40;;;14.00;99.90;;;14.56;nan;101077.75;5030504;28;20929;-63
2022/10/31 02:02:43;;;;;;;15.23;6.30;;;14.00;99.90;;;14.59;nan;101079.28;5026400;28;20637;-65
2022/10/31 02:05:16;;;;;;;13.33;6.40;;;14.10;99.90;;;14.60;nan;101067.81;5032080;28;21241;-65
2022/10/31 02:08:24;;;;;;;7.63;5.50;;;14.10;99.90;;;14.59;nan;101077.50;5030672;28;20629;-65
2022/10/31 02:10:51;;;;;;;8.10;5.53;;;14.10;99.90;;;14.52;nan;101073.69;5019641;28;21223;-64
2022/10/31 02:13:20;;;;;;;10.70;6.00;;;14.00;99.90;;;14.50;nan;101072.16;5029686;28;20980;-68
2022/10/31 02:15:53;;;;;;;7.20;5.10;;;14.00;99.90;;;14.55;nan;101080.47;5032452;28;21007;-64
2022/10/31 02:18:20;;;;;;;11.83;5.80;;;14.00;99.90;;;14.61;nan;101078.19;5030707;28;20647;-64
2022/10/31 02:21:07;;;;;;;7.17;5.40;;;14.10;99.90;;;14.56;nan;101069.03;5030714;28;20621;-65
2022/10/31 02:24:16;;;;;;;8.90;4.57;;;14.10;99.90;;;14.64;nan;101070.06;5047780;28;20635;-64
2022/10/31 02:27:28;;;;;;;6.97;5.53;;;14.10;99.90;;;14.62;nan;101071.16;5031843;28;20629;-67
2022/10/31 02:30:11;;;;;;;8.67;5.30;;;14.10;99.90;;;14.50;nan;101072.97;5032252;28;20759;-67
2022/10/31 02:33:06;;;;;;;7.70;5.57;;;14.00;99.90;;;14.51;nan;101073.81;5032015;28;20633;-62
2022/10/31 02:36:11;;;;;;;8.37;5.63;;;14.00;99.90;;;14.42;nan;101070.13;5030291;28;20633;-66
2022/10/31 02:39:12;;;;;;;10.57;5.07;;;14.00;99.90;;;14.44;nan;101062.13;5028865;28;20673;-61
2022/10/31 02:42:03;;;;;;;7.83;5.43;;;13.90;99.90;;;14.44;nan;101062.13;5030735;28;20637;-65
2022/10/31 02:44:39;;;;;;;8.00;5.53;;;13.90;99.90;;;14.43;nan;101065.72;5050607;28;20642;-64
2022/10/31 02:47:14;;;;;;;7.83;5.10;;;13.90;99.90;;;14.27;nan;101065.28;5061298;28;20629;-63
2022/10/31 02:50:02;;;;;;;12.77;5.63;;;13.80;99.90;;;14.20;nan;101069.34;5035338;28;20748;-64
2022/10/31 02:52:33;;;;;;;10.17;5.60;;;13.80;99.90;;;14.23;nan;101058.59;5044404;28;20664;-66
2022/10/31 02:55:32;;;;;;;7.07;4.90;;;13.70;99.90;;;14.26;nan;101058.34;5031969;28;21463;-63
2022/10/31 02:58:11;;;;;;;6.27;4.50;;;13.70;99.90;;;14.13;nan;101052.41;5028377;28;20676;-63
2022/10/31 03:01:07;;;;;;;6.27;4.90;;;13.70;99.90;;;14.14;nan;101054.09;5026031;28;20664;-63
2022/10/31 03:03:57;;;;;;;5.70;4.97;;;13.70;99.90;;;14.11;nan;101064.81;5030464;28;20633;-63
2022/10/31 03:06:44;;;;;;;7.30;4.80;;;13.70;99.90;;;14.09;nan;101054.47;5031328;28;21195;-64
2022/10/31 03:09:30;;;;;;;8.20;5.27;;;13.70;99.90;;;14.10;nan;101060.56;5043315;28;20656;-63
2022/10/31 03:12:02;;;;;;;9.00;6.23;;;13.60;99.90;;;13.94;nan;101058.28;5049928;28;20620;-61
2022/10/31 03:15:18;;;;;;;5.20;4.70;;;13.60;99.90;;;13.93;nan;101067.09;5032243;28;20623;-63
2022/10/31 03:18:25;;;;;;;6.40;5.07;;;13.50;99.90;;;13.91;nan;101062.00;5029624;28;20787;-62
2022/10/31 03:20:59;;;;;;;10.30;6.60;;;13.50;99.90;;;13.84;nan;101062.59;5025894;28;20636;-65
2022/10/31 03:23:27;;;;;;;8.23;5.50;;;13.50;99.90;;;13.81;nan;101063.69;5037351;28;20640;-62
2022/10/31 03:25:54;;;;;;;7.00;4.47;;;13.40;99.90;;;13.85;nan;101059.84;5025537;28;20641;-65
2022/10/31 03:28:30;;;;;;;6.93;4.60;;;13.40;99.90;;;13.91;nan;101059.38;5010391;28;20613;-63
2022/10/31 03:30:58;;;;;;;5.80;4.07;;;13.40;99.90;;;13.86;nan;101052.84;5028182;28;21192;-63
2022/10/31 03:33:32;;;;;;;5.77;4.70;;;13.40;99.90;;;13.85;nan;101054.63;5031016;28;20682;-63
2022/10/31 03:36:03;;;;;;;6.30;4.30;;;13.40;99.90;;;13.88;nan;101054.34;5030011;28;20633;-63
2022/10/31 03:38:34;;;;;;;5.53;4.10;;;13.40;99.90;;;13.80;nan;101053.28;5029865;28;21252;-68
2022/10/31 03:41:05;;;;;;;6.20;4.03;;;13.40;99.90;;;13.77;nan;101051.75;5030492;28;20635;-64
2022/10/31 03:43:40;;;;;;;5.00;4.00;;;13.40;99.90;;;13.74;nan;101056.41;5029351;28;20612;-64
2022/10/31 03:46:08;;;;;;;5.63;4.30;;;13.30;99.90;;;13.63;nan;101056.41;5030432;28;20750;-63
2022/10/31 03:48:35;;;;;;;6.83;4.87;;;13.30;99.90;;;13.66;nan;101049.13;5030756;28;20751;-63
2022/10/31 03:51:22;;;;;;;8.17;5.23;;;13.20;99.90;;;13.73;nan;101050.34;5030438;28;20620;-63
2022/10/31 03:54:09;;;;;;;7.13;4.67;;;13.20;99.90;;;13.72;nan;101058.31;5033619;28;20641;-66
2022/10/31 03:56:53;;;;;;;5.70;4.37;;;13.30;99.90;;;13.77;nan;101061.41;5025487;28;20622;-64
2022/10/31 03:59:24;;;;;;;5.70;4.00;;;13.30;99.90;;;13.71;nan;101067.13;5030077;28;20684;-64
2022/10/31 04:01:58;;;;;;;12.17;4.90;;;13.30;99.90;;;13.71;nan;101062.75;5030364;28;20617;-64
2022/10/31 04:04:26;;;;;;;6.07;4.83;;;13.20;99.90;;;13.80;nan;101054.13;5030585;28;20655;-64
2022/10/31 04:06:56;;;;;;;6.43;4.70;;;13.30;99.90;;;13.78;nan;101063.06;5030105;28;21193;-64
2022/10/31 04:09:26;;;;;;;4.13;3.60;;;13.30;99.90;;;13.77;nan;101062.25;5030258;28;20661;-65
2022/10/31 04:11:56;;;;;;;5.80;4.13;;;13.30;99.90;;;13.78;nan;101055.19;5029933;28;20632;-64
2022/10/31 04:14:26;;;;;;;7.77;5.10;;;13.30;99.90;;;13.71;nan;101047.00;5030276;28;20651;-64
2022/10/31 04:16:53;;;;;;;10.60;5.73;;;13.20;99.90;;;13.67;nan;101061.28;5029065;28;21429;-64
2022/10/31 04:19:20;;;;;;;8.30;5.10;;;13.20;99.90;;;13.76;nan;101049.25;5029928;28;20677;-64
2022/10/31 04:21:47;;;;;;;7.80;4.77;;;13.20;99.90;;;13.74;nan;101052.00;5030825;28;20636;-63
2022/10/31 04:24:14;;;;;;;8.50;5.10;;;13.20;99.90;;;13.79;nan;101057.72;5029456;28;20641;-63
2022/10/31 04:26:41;;;;;;;9.20;4.67;;;13.20;99.90;;;13.75;nan;101058.91;5030051;28;20625;-65
2022/10/31 04:29:11;;;;;;;8.00;5.30;;;13.20;99.90;;;13.80;nan;101054.13;5029517;28;21256;-63
2022/10/31 04:31:38;;;;;;;6.73;5.10;;;13.30;99.90;;;13.80;nan;101054.13;5029098;28;21196;-64
2022/10/31 04:34:04;;;;;;;6.83;5.43;;;13.30;99.90;;;13.76;nan;101055.31;5029576;28;20633;-64
2022/10/31 04:36:31;;;;;;;8.70;5.00;;;13.20;99.90;;;13.71;nan;101056.66;5029145;28;20637;-64
2022/10/31 04:38:58;;;;;;;8.23;5.50;;;13.20;99.90;;;13.65;nan;101057.94;5027523;28;20664;-63
2022/10/31 04:41:25;;;;;;;11.20;7.10;;;13.20;99.90;;;13.62;nan;101060.81;5049318;28;20897;-64
2022/10/31 04:43:52;;;;;;;13.13;7.57;;;13.20;99.90;;;13.69;nan;101067.25;5036998;28;20633;-64
2022/10/31 04:46:19;;;;;;;12.67;7.30;;;13.20;99.90;;;13.65;nan;101068.44;5030346;28;20621;-64
2022/10/31 04:48:46;;;;;;;10.83;7.43;;;13.20;99.90;;;13.68;nan;101059.50;5028690;28;20668;-64
2022/10/31 04:51:13;;;;;;;14.60;7.33;;;13.20;99.90;;;13.65;nan;101059.75;5050167;28;20624;-63
2022/10/31 04:53:40;;;;;;;11.67;6.33;;;13.20;99.90;;;13.59;nan;101058.44;5041194;28;20632;-66
2022/10/31 04:56:07;;;;;;;9.10;5.97;;;13.10;99.90;;;13.63;nan;101062.47;5030937;28;20624;-64
2022/10/31 04:58:33;;;;;;;9.20;4.90;;;13.10;99.90;;;13.56;nan;101058.69;5028309;28;20668;-64
2022/10/31 05:01:00;;;;;;;8.17;5.10;;;13.10;99.90;;;13.47;nan;101058.53;5033383;28;20660;-63
2022/10/31 05:03:27;;;;;;;6.63;4.67;;;13.00;99.90;;;13.44;nan;101056.19;5031695;28;20704;-63
2022/10/31 05:05:54;;;;;;;8.43;5.50;;;13.00;99.90;;;13.37;nan;101055.81;5033904;28;20624;-64
2022/10/31 05:08:21;;;;;;;8.23;5.40;;;13.00;99.90;;;13.38;nan;101062.72;5032606;28;20955;-63
2022/10/31 05:10:48;;;;;;;10.47;5.80;;;12.90;99.90;;;13.36;nan;101059.38;5034351;28;20621;-65
2022/10/31 05:13:15;;;;;;;9.77;5.90;;;12.90;99.90;;;13.41;nan;101046.75;5032508;28;21004;-64
2022/10/31 05:15:42;;;;;;;12.47;6.53;;;12.90;99.90;;;13.34;nan;101042.09;5034300;28;20624;-63
2022/10/31 05:18:09;;;;;;;9.20;5.87;;;12.90;99.90;;;13.40;nan;101047.69;5032903;28;20637;-64
2022/10/31 05:20:36;;;;;;;6.37;4.10;;;13.00;99.90;;;13.49;nan;101052.25;5032865;28;20674;-64
2022/10/31 05:23:02;;;;;;;8.00;4.30;;;13.00;99.90;;;13.29;nan;101052.91;5032509;28;20691;-64
2022/10/31 05:25:29;;;;;;;7.13;4.70;;;12.90;99.90;;;13.10;nan;101044.78;5032548;28;21196;-63
2022/10/31 05:27:57;;;;;;;12.50;5.53;;;12.80;99.90;;;13.28;nan;101047.81;5032479;28;20988;-63
2022/10/31 05:30:29;;;;;;;9.07;5.00;;;12.90;99.90;;;13.12;nan;101056.00;5034011;28;21032;-64
2022/10/31 05:32:56;;;;;;;7.57;5.13;;;12.80;99.90;;;13.03;nan;101056.66;5032311;28;21220;-63
2022/10/31 05:35:31;;;;;;;10.30;5.27;;;12.70;99.90;;;13.04;nan;101058.31;5033472;28;20639;-63
2022/10/31 05:37:59;;;;;;;5.43;3.93;;;12.70;99.90;;;13.13;nan;101055.06;5033313;28;21174;-63
2022/10/31 05:40:27;;;;;;;7.53;4.60;;;12.70;99.90;;;13.12;nan;101043.72;5032252;28;20668;-63
2022/10/31 05:42:56;;;;;;;8.13;5.10;;;12.70;99.90;;;13.22;nan;101042.06;5033436;28;20690;-63
2022/10/31 05:45:23;;;;;;;7.30;5.00;;;12.70;99.90;;;13.26;nan;101041.84;5033638;28;21047;-64
2022/10/31 05:48:01;;;;;;;7.07;5.00;;;12.80;99.90;;;13.09;nan;101049.22;5049606;28;20620;-64
2022/10/31 05:50:31;;;;;;;8.07;5.17;;;12.70;99.90;;;13.06;nan;101043.34;5031791;28;20644;-64
2022/10/31 05:53:04;;;;;;;7.27;5.30;;;12.70;99.90;;;13.10;nan;101050.03;5031556;28;20623;-62
2022/10/31 05:55:32;;;;;;;8.03;5.60;;;12.60;99.90;;;12.99;nan;101029.84;5016073;28;21199;-64
2022/10/31 05:57:59;;;;;;;14.07;6.20;;;12.70;99.90;;;12.98;nan;101036.06;5034607;28;20639;-61
2022/10/31 06:00:27;;;;;;;8.60;5.90;;;12.60;99.90;;;12.94;nan;101049.50;5047549;28;20675;-62
2022/10/31 06:03:05;;;;;;;16.93;6.50;;;12.60;99.90;;;12.91;nan;101050.56;5040440;28;20698;-62
2022/10/31 06:05:32;;;;;;;15.30;7.87;;;12.60;99.90;;;12.95;nan;101053.78;5031470;28;20632;-63
2022/10/31 06:08:00;;;;;;;10.80;7.30;;;12.50;99.90;;;12.97;nan;101049.25;5037965;28;20636;-63
2022/10/31 06:10:28;;;;;;;7.70;5.50;;;12.50;99.90;;;13.09;nan;101040.53;5049296;28;21056;-64
2022/10/31 06:12:55;;;;;;;19.90;6.07;;;12.60;99.90;;;12.96;nan;101048.44;5046148;28;20637;-63
2022/10/31 06:15:22;;;;;;;8.60;5.30;;;12.60;99.90;;;13.05;nan;101057.41;5028003;28;20636;-64
2022/10/31 06:18:05;;;;;;;8.90;5.63;;;12.60;99.90;;;13.03;nan;101047.00;5023245;28;20637;-64
2022/10/31 06:20:33;;;;;;;6.67;5.37;;;12.70;99.90;;;13.14;nan;101041.81;5029770;28;21043;-63
2022/10/31 06:23:00;;;;;;;8.07;5.83;;;12.70;99.90;;;13.29;nan;101041.63;5025796;28;20651;-65
2022/10/31 06:25:30;;;;;;;14.63;6.70;;;12.80;99.90;;;13.48;nan;101036.63;5031956;28;20635;-64
2022/10/31 06:27:57;;;;;;;14.80;7.10;;;12.90;99.90;;;13.46;nan;101041.16;5030940;28;20670;-64
2022/10/31 06:30:25;;;;;;;11.50;7.20;;;13.00;99.90;;;13.62;nan;101049.50;5022190;28;20665;-64
2022/10/31 06:32:52;;;;;;;14.10;7.23;;;13.10;99.90;;;13.70;nan;101045.31;5030742;28;21064;-66
2022/10/31 06:35:19;;;;;;;13.73;7.87;;;13.10;99.90;;;13.79;nan;101044.59;5039720;28;20636;-64
2022/10/31 06:37:53;;;;;;;10.13;7.07;;;13.20;99.90;;;13.92;nan;101044.47;5030695;28;20645;-64
2022/10/31 06:40:20;;;;;;;12.10;7.37;;;13.40;99.90;;;14.26;nan;101047.84;5030953;28;20673;-64
2022/10/31 06:42:47;;;;;;;13.40;7.80;;;13.50;99.90;;;14.69;nan;101048.69;5031014;28;20849;-65
2022/10/31 06:45:14;;;;;;;9.97;7.07;;;13.80;99.90;;;14.92;nan;101052.03;5031833;28;21231;-66
2022/10/31 06:47:41;;;;;;;11.83;6.57;;;14.00;99.90;;;15.02;nan;101058.19;5024341;28;20648;-64
2022/10/31 06:50:28;;;;;;;12.03;6.70;;;14.20;99.90;;;15.14;nan;101050.09;5040788;28;20763;-64
2022/10/31 06:52:58;;;;;;;12.30;7.10;;;14.30;99.90;;;15.12;nan;101049.38;5037114;28;20659;-64
2022/10/31 06:55:26;;;;;;;14.47;6.90;;;14.40;99.90;;;15.20;nan;101046.97;5031111;28;20652;-64
2022/10/31 06:57:55;;;;;;;9.20;6.60;;;14.50;99.90;;;15.37;nan;101042.91;5029050;28;20641;-65
2022/10/31 07:00:28;;;;;;;13.00;6.80;;;14.60;99.90;;;15.46;nan;101056.13;5030102;28;21321;-64
2022/10/31 07:03:09;;;;;;;12.43;6.90;;;14.70;99.90;;;15.76;nan;101055.28;5031156;28;20637;-63
2022/10/31 07:05:35;;;;;;;10.37;6.97;;;14.80;99.90;;;16.01;nan;101060.09;5030736;28;21074;-64
2022/10/31 07:08:08;;;;;;;8.90;6.60;;;15.00;99.90;;;16.37;nan;101058.63;5029948;28;20664;-66
2022/10/31 07:10:37;;;;;;;12.93;6.90;;;15.30;99.90;;;17.06;nan;101067.22;5045633;28;20642;-65
2022/10/31 07:13:14;;;;;;;12.73;6.90;;;15.70;99.90;;;17.75;nan;101051.91;5047182;28;21179;-64
2022/10/31 07:15:42;;;;;;;8.50;6.13;;;16.10;99.90;;;18.07;nan;101067.31;5050954;28;20614;-67
2022/10/31 07:18:11;;;;;;;9.40;6.73;;;16.50;99.90;;;18.09;nan;101060.06;5031293;28;20642;-64
2022/10/31 07:20:38;;;;;;;9.37;6.57;;;16.70;99.90;;;17.88;nan;101057.69;5009764;28;20662;-64
2022/10/31 07:23:05;;;;;;;10.30;6.13;;;16.80;99.90;;;18.13;nan;101067.56;5025269;28;20633;-65
2022/10/31 07:25:32;;;;;;;7.47;6.20;;;16.90;99.90;;;18.57;nan;101066.72;5030650;28;20616;-64
2022/10/31 07:27:59;;;;;;;7.33;6.20;;;17.10;99.90;;;18.94;nan;101063.06;5026799;28;20637;-62
2022/10/31 07:30:27;;;;;;;9.67;6.07;;;17.40;99.90;;;19.32;nan;101058.22;5030217;28;20657;-64
2022/10/31 07:32:55;;;;;;;6.73;5.97;;;17.70;99.90;;;20.03;nan;101055.25;5030511;28;20641;-64
2022/10/31 07:35:27;;;;;;;12.00;6.70;;;18.20;99.90;;;20.87;nan;101064.69;5030219;28;20660;-64
2022/10/31 07:37:55;;;;;;;9.17;6.23;;;18.80;99.90;;;21.68;nan;101061.91;5029418;28;20637;-64
2022/10/31 07:40:22;;;;;;;11.43;7.10;;;19.40;99.90;;;21.93;nan;101058.22;5030110;28;20733;-64
2022/10/31 07:42:52;;;;;;;10.27;7.00;;;19.80;99.90;;;22.31;nan;101061.81;5030642;28;20633;-65
2022/10/31 07:45:20;;;;;;;9.80;6.90;;;20.10;99.90;;;23.12;nan;101054.06;5031366;28;21000;-65
2022/10/31 07:47:53;;;;;;;13.00;7.57;;;20.60;99.90;;;24.00;nan;101049.56;5028049;28;21413;-66
2022/10/31 07:50:29;;;;;;;8.57;7.03;;;21.30;99.90;;;24.59;nan;101063.56;5046408;28;20652;-65
2022/10/31 07:53:15;;;;;;;12.63;7.30;;;21.70;99.90;;;24.91;nan;101063.09;5046629;28;20628;-64
2022/10/31 07:55:42;;;;;;;9.53;6.77;;;22.20;99.90;;;25.32;nan;101066.66;5029066;28;20670;-64
2022/10/31 07:58:16;;;;;;;11.10;7.43;;;22.50;99.90;;;25.23;nan;101062.50;5028721;28;20649;-64
2022/10/31 08:00:45;;;;;;;10.10;6.90;;;22.80;99.90;;;25.64;nan;101059.91;5024077;28;20661;-63
2022/10/31 08:03:16;;;;;;;9.50;7.07;;;23.00;99.90;;;26.33;nan;101060.63;5020202;28;20667;-68
2022/10/31 08:05:47;;;;;;;10.50;7.20;;;23.40;99.90;;;26.66;nan;101058.00;5029604;28;21156;-67
2022/10/31 08:08:14;;;;;;;13.33;7.27;;;23.90;99.90;;;27.77;nan;101057.09;5027969;28;20629;-68
2022/10/31 08:10:42;;;;;;;9.53;7.63;;;24.50;99.90;;;28.64;nan;101068.03;5030033;28;20635;-68
2022/10/31 08:13:13;;;;;;;12.90;5.87;;;25.00;99.90;;;28.93;nan;101053.94;5029032;28;21160;-68
2022/10/31 08:15:41;;;;;;;11.93;7.10;;;25.40;99.20;;;29.17;nan;101063.06;5030346;28;20621;-67
2022/10/31 08:18:15;;;;;;;9.20;8.20;;;25.80;98.10;;;29.24;nan;101058.47;5029418;28;20633;-66
2022/10/31 08:20:43;;;;;;;14.63;6.70;;;26.10;97.10;;;29.59;nan;101046.06;5027994;28;21244;-68
2022/10/31 08:23:12;;;;;;;10.67;7.67;;;26.40;95.90;;;30.20;nan;101049.44;5027024;28;20625;-69
2022/10/31 08:25:39;;;;;;;10.90;8.07;;;26.60;95.10;;;31.05;nan;101052.75;5028960;28;21232;-69
2022/10/31 08:28:11;;;;;;;9.43;6.50;;;27.10;94.10;;;31.86;nan;101056.16;5033470;28;20642;-69
2022/10/31 08:30:39;;;;;;;9.40;7.77;;;27.50;92.90;;;32.10;nan;101056.94;5027972;28;20625;-72
2022/10/31 08:33:13;;;;;;;12.73;9.33;;;27.80;92.10;;;31.52;nan;101059.75;5026522;28;20663;-63
2022/10/31 08:35:40;;;;;;;15.27;8.17;;;27.70;91.70;;;31.11;nan;101055.31;5030804;28;20620;-68
2022/10/31 08:38:10;;;;;;;9.73;7.67;;;27.70;91.20;;;31.27;nan;101051.91;5025287;28;20699;-68
2022/10/31 08:40:38;;;;;;;8.10;7.23;;;27.70;91.10;;;31.20;nan;101051.19;5038467;28;20664;-68
2022/10/31 08:43:11;;;;;;;10.13;7.63;;;27.80;90.50;;;30.09;nan;101041.34;5039955;28;20667;-67
2022/10/31 08:45:38;;;;;;;7.63;6.83;;;27.70;90.00;;;29.84;nan;101038.75;5028616;28;20634;-64
2022/10/31 08:48:12;;;;;;;12.60;7.13;;;27.20;90.40;;;29.34;nan;101038.09;5030828;28;20636;-65
2022/10/31 08:50:39;;;;;;;9.40;7.30;;;26.60;91.20;;;29.05;nan;101039.56;5013319;28;20621;-64
2022/10/31 08:53:13;;;;;;;9.03;7.70;;;26.20;91.90;;;28.94;nan;101034.91;5037901;28;21004;-64
2022/10/31 08:55:41;;;;;;;9.43;7.40;;;26.00;92.50;;;28.68;nan;101035.16;5040744;28;20998;-66
2022/10/31 08:58:13;;;;;;;9.20;7.50;;;25.80;92.50;;;28.66;nan;101045.28;5031011;28;20645;-62
2022/10/31 09:00:41;;;;;;;9.70;7.13;;;25.70;93.30;;;28.52;nan;101043.69;5030651;28;20664;-66
2022/10/31 09:03:18;;;;;;;12.10;8.50;;;25.60;93.70;;;28.01;nan;101025.03;5037882;28;21398;-66
2022/10/31 09:05:45;;;;;;;16.87;8.00;;;25.40;93.70;;;27.66;nan;101027.19;5052258;28;20998;-65
2022/10/31 09:08:13;;;;;;;19.93;8.40;;;25.40;93.80;;;27.82;nan;101023.22;5042668;28;20636;-64
2022/10/31 09:10:43;;;;;;;14.40;8.20;;;25.30;94.00;;;27.57;nan;101016.94;5033069;28;20635;-64
2022/10/31 09:13:21;;;;;;;18.97;8.13;;;25.10;94.50;;;26.81;nan;101010.47;5032885;28;20648;-65
2022/10/31 09:15:51;;;;;;;9.80;6.83;;;24.60;95.20;;;25.96;nan;101016.44;5032449;28;20624;-64
2022/10/31 09:18:22;;;;;;;11.33;7.80;;;24.00;96.30;;;25.38;nan;101022.34;5033206;28;20640;-64
2022/10/31 09:20:50;;;;;;;12.20;8.80;;;23.60;97.50;;;24.86;nan;101025.47;5050528;28;21027;-63
2022/10/31 09:23:22;;;;;;;11.60;7.53;;;23.10;98.80;;;24.57;nan;101017.59;5032374;28;20639;-64
2022/10/31 09:25:52;;;;;;;10.43;7.97;;;22.80;99.70;;;24.26;nan;101019.72;5031266;28;21204;-64
2022/10/31 09:28:22;;;;;;;14.50;7.10;;;22.40;99.90;;;24.59;nan;101016.38;5032641;28;20628;-64
2022/10/31 09:30:52;;;;;;;9.40;7.63;;;22.40;99.90;;;24.91;nan;101019.53;5033181;28;21246;-65
2022/10/31 09:33:20;;;;;;;12.50;8.10;;;22.50;99.90;;;25.14;nan;101022.78;5029743;28;20625;-64
2022/10/31 09:35:48;;;;;;;11.50;7.80;;;22.60;99.90;;;25.37;nan;101021.50;5033324;28;21183;-65
2022/10/31 09:38:19;;;;;;;14.70;9.30;;;22.70;99.90;;;25.29;nan;101007.47;5031584;28;21001;-65
2022/10/31 09:41:30;;;;;;;11.53;7.53;;;22.80;99.90;;;24.87;nan;101010.28;5033582;28;20686;-67
2022/10/31 09:44:00;;;;;;;14.40;9.00;;;22.70;99.90;;;24.13;nan;101001.75;5031234;28;21200;-64
2022/10/31 09:47:15;;;;;;;16.63;9.57;;;22.40;99.90;;;23.68;nan;100989.53;5032936;28;20639;-65
2022/10/31 09:49:54;;;;;;;13.33;8.80;;;22.10;99.90;;;23.51;nan;100997.94;5030702;28;20657;-64
2022/10/31 09:52:32;;;;;;;15.50;9.50;;;21.90;99.90;;;23.57;nan;100997.19;5032683;28;20604;-65
2022/10/31 09:55:20;;;;;;;16.90;9.90;;;21.80;99.90;;;23.66;nan;100990.75;5031117;28;20697;-63
2022/10/31 09:57:48;;;;;;;13.20;9.43;;;21.80;99.90;;;23.23;nan;100994.22;5026973;28;21010;-65
2022/10/31 10:00:20;;;;;;;13.80;9.07;;;21.70;99.90;;;23.73;nan;100992.47;5033634;28;20661;-66
2022/10/31 10:02:59;;;;;;;14.73;8.80;;;21.80;99.90;;;24.05;nan;100995.72;5032307;28;20637;-64
2022/10/31 10:05:46;;;;;;;14.03;8.90;;;22.00;99.90;;;24.13;nan;100992.97;5031902;28;20604;-66
2022/10/31 10:08:23;;;;;;;18.67;9.40;;;22.00;99.90;;;24.21;nan;100991.00;5030696;28;20613;-66
2022/10/31 10:11:10;;;;;;;12.90;8.40;;;22.10;99.90;;;24.22;nan;100983.78;5030633;28;20644;-65
2022/10/31 10:14:21;;;;;;;17.80;7.97;;;22.20;99.90;;;24.86;nan;100989.94;5024270;28;20758;-64
2022/10/31 10:17:08;;;;;;;17.27;9.30;;;22.50;99.90;;;25.25;nan;100974.19;5010841;28;20633;-65
2022/10/31 10:20:11;;;;;;;18.47;9.67;;;22.70;99.90;;;25.23;nan;100978.91;5032153;28;20679;-65
2022/10/31 10:22:54;;;;;;;16.97;7.67;;;22.90;99.90;;;24.62;nan;100983.13;5030772;28;21231;-65
2022/10/31 10:25:31;;;;;;;17.23;10.40;;;22.70;99.90;;;23.94;nan;100980.22;5031081;28;20982;-66
2022/10/31 10:28:38;;;;;;;15.57;9.83;;;22.40;99.90;;;23.20;nan;100986.59;5029996;28;20619;-70
2022/10/31 10:31:17;;;;;;;19.93;9.90;;;21.90;99.90;;;22.59;nan;100985.88;5030931;28;20637;-65
2022/10/31 10:34:10;;;;;;;17.03;10.90;;;21.50;99.90;;;22.31;nan;100987.38;5023897;28;20671;-65
2022/10/31 10:36:54;;;;;;;21.80;10.53;;;21.30;99.90;;;22.19;nan;100970.22;5011989;28;20707;-67
2022/10/31 10:39:25;;;;;;;12.77;8.70;;;21.00;99.90;;;21.87;nan;100965.09;5027392;28;20671;-64
2022/10/31 10:47:50;;;;;;;15.50;9.43;;;20.60;99.90;;;21.61;nan;100957.41;5024257;28;20629;-68
2022/10/31 10:50:27;;;;;;;16.37;9.87;;;20.40;99.90;;;21.60;nan;100961.03;5030806;28;20657;-67
2022/10/31 10:53:59;;;;;;;20.50;10.40;;;20.30;99.90;;;21.57;nan;100953.44;5045419;28;20637;-64
2022/10/31 10:57:07;;;;;;;18.53;10.27;;;20.30;99.90;;;21.47;nan;100944.84;5012100;28;20626;-65